sensor_id;sensor_type;location;lat;lon;timestamp;temperature;humidity
20483;DHT22;10400;53.198;6.592;2023-02-26T00:01:40;3.10;99.90
20483;DHT22;10400;53.198;6.592;2023-02-26T00:04:06;3.10;99.90
20483;DHT22;10400;53.198;6.592;2023-02-26T00:06:40;3.10;99.90
20483;DHT22;10400;53.198;6.592;2023-02-26T00:09:17;3.10;99.90
20483;DHT22;10400;53.198;6.592;2023-02-26T00:11:44;3.10;99.90
20483;DHT22;10400;53.198;6.592;2023-02-26T00:14:13;3.30;99.90
20483;DHT22;10400;53.198;6.592;2023-02-26T00:16:40;3.10;99.90
20483;DHT22;10400;53.198;6.592;2023-02-26T00:19:07;3.10;99.90
20483;DHT22;10400;53.198;6.592;2023-02-26T00:21:36;3.10;99.90
20483;DHT22;10400;53.198;6.592;2023-02-26T00:24:02;3.10;99.90
20483;DHT22;10400;53.198;6.592;2023-02-26T00:26:29;3.00;99.90
20483;DHT22;10400;53.198;6.592;2023-02-26T00:28:56;3.20;99.90
20483;DHT22;10400;53.198;6.592;2023-02-26T00:31:25;3.00;99.90
20483;DHT22;10400;53.198;6.592;2023-02-26T00:33:53;3.20;99.90
20483;DHT22;10400;53.198;6.592;2023-02-26T00:36:28;3.10;99.90
20483;DHT22;10400;53.198;6.592;2023-02-26T00:41:32;3.00;99.90
20483;DHT22;10400;53.198;6.592;2023-02-26T00:43:58;2.90;99.90
20483;DHT22;10400;53.198;6.592;2023-02-26T00:46:51;2.90;99.90
20483;DHT22;10400;53.198;6.592;2023-02-26T00:52:17;2.90;99.90
20483;DHT22;10400;53.198;6.592;2023-02-26T00:54:44;2.80;99.90
20483;DHT22;10400;53.198;6.592;2023-02-26T00:57:10;2.70;99.90
20483;DHT22;10400;53.198;6.592;2023-02-26T00:59:36;2.70;99.90
20483;DHT22;10400;53.198;6.592;2023-02-26T01:02:01;2.60;99.90
20483;DHT22;10400;53.198;6.592;2023-02-26T01:04:30;2.60;99.90
20483;DHT22;10400;53.198;6.592;2023-02-26T01:07:00;2.60;99.90
20483;DHT22;10400;53.198;6.592;2023-02-26T01:11:58;2.50;99.90
20483;DHT22;10400;53.198;6.592;2023-02-26T01:14:26;2.50;99.90
20483;DHT22;10400;53.198;6.592;2023-02-26T01:17:22;2.40;99.90
20483;DHT22;10400;53.198;6.592;2023-02-26T01:22:27;2.30;99.90
20483;DHT22;10400;53.198;6.592;2023-02-26T01:25:12;2.30;99.90
20483;DHT22;10400;53.198;6.592;2023-02-26T01:27:38;2.10;99.90
20483;DHT22;10400;53.198;6.592;2023-02-26T01:30:05;2.20;99.90
20483;DHT22;10400;53.198;6.592;2023-02-26T01:38:29;2.10;99.90
20483;DHT22;10400;53.198;6.592;2023-02-26T01:46:55;1.90;99.90
20483;DHT22;10400;53.198;6.592;2023-02-26T01:49:22;1.90;99.90
20483;DHT22;10400;53.198;6.592;2023-02-26T01:51:55;1.90;99.90
20483;DHT22;10400;53.198;6.592;2023-02-26T01:54:34;2.00;99.90
20483;DHT22;10400;53.198;6.592;2023-02-26T01:57:13;1.90;99.90
20483;DHT22;10400;53.198;6.592;2023-02-26T01:59:45;1.90;99.90
20483;DHT22;10400;53.198;6.592;2023-02-26T02:02:14;1.90;99.90
20483;DHT22;10400;53.198;6.592;2023-02-26T02:04:40;1.80;99.90
20483;DHT22;10400;53.198;6.592;2023-02-26T02:07:07;1.70;99.90
20483;DHT22;10400;53.198;6.592;2023-02-26T02:09:33;1.70;99.90
20483;DHT22;10400;53.198;6.592;2023-02-26T02:20:35;1.60;99.90
20483;DHT22;10400;53.198;6.592;2023-02-26T02:23:21;1.60;99.90
20483;DHT22;10400;53.198;6.592;2023-02-26T02:28:58;1.50;99.90
20483;DHT22;10400;53.198;6.592;2023-02-26T02:31:33;1.50;99.90
20483;DHT22;10400;53.198;6.592;2023-02-26T02:36:54;1.30;99.90
20483;DHT22;10400;53.198;6.592;2023-02-26T02:39:27;1.30;99.90
20483;DHT22;10400;53.198;6.592;2023-02-26T02:42:19;1.30;99.90
20483;DHT22;10400;53.198;6.592;2023-02-26T02:44:50;1.30;99.90
20483;DHT22;10400;53.198;6.592;2023-02-26T02:47:19;1.30;99.90
20483;DHT22;10400;53.198;6.592;2023-02-26T02:49:52;1.40;99.90
20483;DHT22;10400;53.198;6.592;2023-02-26T02:54:59;1.30;99.90
20483;DHT22;10400;53.198;6.592;2023-02-26T02:57:40;1.30;99.90
20483;DHT22;10400;53.198;6.592;2023-02-26T03:00:10;1.40;99.90
20483;DHT22;10400;53.198;6.592;2023-02-26T03:05:25;1.30;99.90
20483;DHT22;10400;53.198;6.592;2023-02-26T03:08:09;1.30;99.90
20483;DHT22;10400;53.198;6.592;2023-02-26T03:10:37;1.50;99.90
20483;DHT22;10400;53.198;6.592;2023-02-26T03:13:03;1.40;99.90
20483;DHT22;10400;53.198;6.592;2023-02-26T03:15:38;1.30;99.90
20483;DHT22;10400;53.198;6.592;2023-02-26T03:21:12;1.30;99.90
20483;DHT22;10400;53.198;6.592;2023-02-26T03:23:51;1.40;99.90
20483;DHT22;10400;53.198;6.592;2023-02-26T03:26:33;1.40;99.90
20483;DHT22;10400;53.198;6.592;2023-02-26T03:29:09;1.30;99.90
20483;DHT22;10400;53.198;6.592;2023-02-26T03:31:59;1.30;99.90
20483;DHT22;10400;53.198;6.592;2023-02-26T03:34:32;1.30;99.90
20483;DHT22;10400;53.198;6.592;2023-02-26T03:37:21;1.30;99.90
20483;DHT22;10400;53.198;6.592;2023-02-26T03:39:51;1.30;99.90
20483;DHT22;10400;53.198;6.592;2023-02-26T03:42:21;1.30;99.90
20483;DHT22;10400;53.198;6.592;2023-02-26T03:44:54;1.30;99.90
20483;DHT22;10400;53.198;6.592;2023-02-26T03:47:21;1.30;99.90
20483;DHT22;10400;53.198;6.592;2023-02-26T03:49:59;1.20;99.90
20483;DHT22;10400;53.198;6.592;2023-02-26T03:52:28;1.30;99.90
20483;DHT22;10400;53.198;6.592;2023-02-26T03:54:58;1.20;99.90
20483;DHT22;10400;53.198;6.592;2023-02-26T03:57:25;1.20;99.90
20483;DHT22;10400;53.198;6.592;2023-02-26T03:59:51;1.20;99.90
20483;DHT22;10400;53.198;6.592;2023-02-26T04:02:25;1.20;99.90
20483;DHT22;10400;53.198;6.592;2023-02-26T04:04:58;1.20;99.90
20483;DHT22;10400;53.198;6.592;2023-02-26T04:07:26;1.30;99.90
20483;DHT22;10400;53.198;6.592;2023-02-26T04:09:52;1.20;99.90
20483;DHT22;10400;53.198;6.592;2023-02-26T04:12:26;1.10;99.90
20483;DHT22;10400;53.198;6.592;2023-02-26T04:14:53;1.10;99.90
20483;DHT22;10400;53.198;6.592;2023-02-26T04:17:19;1.10;99.90
20483;DHT22;10400;53.198;6.592;2023-02-26T04:19:44;1.20;99.90
20483;DHT22;10400;53.198;6.592;2023-02-26T04:22:10;1.20;99.90
20483;DHT22;10400;53.198;6.592;2023-02-26T04:24:36;1.20;99.90
20483;DHT22;10400;53.198;6.592;2023-02-26T04:27:02;1.20;99.90
20483;DHT22;10400;53.198;6.592;2023-02-26T04:29:28;1.10;99.90
20483;DHT22;10400;53.198;6.592;2023-02-26T04:31:54;1.10;99.90
20483;DHT22;10400;53.198;6.592;2023-02-26T04:34:19;1.10;99.90
20483;DHT22;10400;53.198;6.592;2023-02-26T04:36:45;1.10;99.90
20483;DHT22;10400;53.198;6.592;2023-02-26T04:39:12;1.00;99.90
20483;DHT22;10400;53.198;6.592;2023-02-26T04:41:38;1.10;99.90
20483;DHT22;10400;53.198;6.592;2023-02-26T04:44:04;1.00;99.90
20483;DHT22;10400;53.198;6.592;2023-02-26T04:46:30;1.00;99.90
20483;DHT22;10400;53.198;6.592;2023-02-26T04:48:56;1.00;99.90
20483;DHT22;10400;53.198;6.592;2023-02-26T04:51:22;1.10;99.90
20483;DHT22;10400;53.198;6.592;2023-02-26T04:53:48;1.20;99.90
20483;DHT22;10400;53.198;6.592;2023-02-26T04:56:14;1.00;99.90
20483;DHT22;10400;53.198;6.592;2023-02-26T04:58:39;1.00;99.90
20483;DHT22;10400;53.198;6.592;2023-02-26T05:01:05;0.90;99.90
20483;DHT22;10400;53.198;6.592;2023-02-26T05:03:31;1.00;99.90
20483;DHT22;10400;53.198;6.592;2023-02-26T05:05:57;1.10;99.90
20483;DHT22;10400;53.198;6.592;2023-02-26T05:08:22;1.10;99.90
20483;DHT22;10400;53.198;6.592;2023-02-26T05:10:50;1.00;99.90
20483;DHT22;10400;53.198;6.592;2023-02-26T05:13:16;1.00;99.90
20483;DHT22;10400;53.198;6.592;2023-02-26T05:15:41;1.00;99.90
20483;DHT22;10400;53.198;6.592;2023-02-26T05:18:07;1.10;99.90
20483;DHT22;10400;53.198;6.592;2023-02-26T05:20:33;1.00;99.90
20483;DHT22;10400;53.198;6.592;2023-02-26T05:22:58;1.00;99.90
20483;DHT22;10400;53.198;6.592;2023-02-26T05:25:24;1.00;99.90
20483;DHT22;10400;53.198;6.592;2023-02-26T05:27:50;1.00;99.90
20483;DHT22;10400;53.198;6.592;2023-02-26T05:30:16;1.00;99.90
20483;DHT22;10400;53.198;6.592;2023-02-26T05:32:42;1.00;99.90
20483;DHT22;10400;53.198;6.592;2023-02-26T05:35:08;1.00;99.90
20483;DHT22;10400;53.198;6.592;2023-02-26T05:37:35;1.00;99.90
20483;DHT22;10400;53.198;6.592;2023-02-26T05:40:01;1.00;99.90
20483;DHT22;10400;53.198;6.592;2023-02-26T05:42:26;1.10;99.90
20483;DHT22;10400;53.198;6.592;2023-02-26T05:44:52;1.10;99.90
20483;DHT22;10400;53.198;6.592;2023-02-26T05:47:18;1.10;99.90
20483;DHT22;10400;53.198;6.592;2023-02-26T05:49:43;1.00;99.90
20483;DHT22;10400;53.198;6.592;2023-02-26T05:52:09;1.00;99.90
20483;DHT22;10400;53.198;6.592;2023-02-26T05:54:35;1.10;99.90
20483;DHT22;10400;53.198;6.592;2023-02-26T05:57:00;1.00;99.90
20483;DHT22;10400;53.198;6.592;2023-02-26T05:59:26;1.00;99.90
20483;DHT22;10400;53.198;6.592;2023-02-26T06:01:52;1.10;99.90
20483;DHT22;10400;53.198;6.592;2023-02-26T06:04:17;1.10;99.90
20483;DHT22;10400;53.198;6.592;2023-02-26T06:06:43;1.10;99.90
20483;DHT22;10400;53.198;6.592;2023-02-26T06:09:09;1.10;99.90
20483;DHT22;10400;53.198;6.592;2023-02-26T06:11:34;1.20;99.90
20483;DHT22;10400;53.198;6.592;2023-02-26T06:14:00;1.20;99.90
20483;DHT22;10400;53.198;6.592;2023-02-26T06:16:26;1.20;99.90
20483;DHT22;10400;53.198;6.592;2023-02-26T06:18:51;1.20;99.90
20483;DHT22;10400;53.198;6.592;2023-02-26T06:21:17;1.20;99.90
20483;DHT22;10400;53.198;6.592;2023-02-26T06:23:43;1.20;99.90
20483;DHT22;10400;53.198;6.592;2023-02-26T06:26:14;1.30;99.90
20483;DHT22;10400;53.198;6.592;2023-02-26T06:28:39;1.20;99.90
20483;DHT22;10400;53.198;6.592;2023-02-26T06:31:06;1.10;99.90
20483;DHT22;10400;53.198;6.592;2023-02-26T06:33:31;1.20;99.90
20483;DHT22;10400;53.198;6.592;2023-02-26T06:35:57;1.20;99.90
20483;DHT22;10400;53.198;6.592;2023-02-26T06:38:24;1.10;99.90
20483;DHT22;10400;53.198;6.592;2023-02-26T06:40:50;1.10;99.90
20483;DHT22;10400;53.198;6.592;2023-02-26T06:43:16;1.10;99.90
20483;DHT22;10400;53.198;6.592;2023-02-26T06:45:41;1.00;99.90
20483;DHT22;10400;53.198;6.592;2023-02-26T06:48:07;1.20;99.90
20483;DHT22;10400;53.198;6.592;2023-02-26T06:50:33;1.00;99.90
20483;DHT22;10400;53.198;6.592;2023-02-26T06:52:58;1.00;99.90
20483;DHT22;10400;53.198;6.592;2023-02-26T06:55:24;0.90;99.90
20483;DHT22;10400;53.198;6.592;2023-02-26T06:57:53;0.90;99.90
20483;DHT22;10400;53.198;6.592;2023-02-26T07:00:19;1.00;99.90
20483;DHT22;10400;53.198;6.592;2023-02-26T07:02:45;1.00;99.90
20483;DHT22;10400;53.198;6.592;2023-02-26T07:05:11;1.00;99.90
20483;DHT22;10400;53.198;6.592;2023-02-26T07:07:37;1.10;99.90
20483;DHT22;10400;53.198;6.592;2023-02-26T07:10:05;1.10;99.90
20483;DHT22;10400;53.198;6.592;2023-02-26T07:12:31;1.20;99.90
20483;DHT22;10400;53.198;6.592;2023-02-26T07:14:57;1.20;99.90
20483;DHT22;10400;53.198;6.592;2023-02-26T07:17:22;1.20;99.90
20483;DHT22;10400;53.198;6.592;2023-02-26T07:19:49;1.20;99.90
20483;DHT22;10400;53.198;6.592;2023-02-26T07:22:16;1.40;99.90
20483;DHT22;10400;53.198;6.592;2023-02-26T07:24:42;1.50;99.90
20483;DHT22;10400;53.198;6.592;2023-02-26T07:27:09;1.50;99.90
20483;DHT22;10400;53.198;6.592;2023-02-26T07:29:35;1.60;99.90
20483;DHT22;10400;53.198;6.592;2023-02-26T07:32:01;1.70;99.90
20483;DHT22;10400;53.198;6.592;2023-02-26T07:34:39;1.90;99.90
20483;DHT22;10400;53.198;6.592;2023-02-26T07:37:05;1.80;99.90
20483;DHT22;10400;53.198;6.592;2023-02-26T07:39:30;2.10;99.90
20483;DHT22;10400;53.198;6.592;2023-02-26T07:41:56;2.10;99.90
20483;DHT22;10400;53.198;6.592;2023-02-26T07:44:21;2.20;99.90
20483;DHT22;10400;53.198;6.592;2023-02-26T07:46:47;2.10;99.90
20483;DHT22;10400;53.198;6.592;2023-02-26T07:49:15;2.10;99.90
20483;DHT22;10400;53.198;6.592;2023-02-26T07:51:41;2.00;99.90
20483;DHT22;10400;53.198;6.592;2023-02-26T07:54:11;2.10;99.90
20483;DHT22;10400;53.198;6.592;2023-02-26T07:56:38;2.10;99.90
20483;DHT22;10400;53.198;6.592;2023-02-26T07:59:04;2.20;99.90
20483;DHT22;10400;53.198;6.592;2023-02-26T08:01:30;2.30;99.90
20483;DHT22;10400;53.198;6.592;2023-02-26T08:03:55;2.30;99.90
20483;DHT22;10400;53.198;6.592;2023-02-26T08:06:21;2.50;99.90
20483;DHT22;10400;53.198;6.592;2023-02-26T08:08:47;2.80;99.90
20483;DHT22;10400;53.198;6.592;2023-02-26T08:11:12;3.00;99.90
20483;DHT22;10400;53.198;6.592;2023-02-26T08:13:38;3.30;99.90
20483;DHT22;10400;53.198;6.592;2023-02-26T08:16:04;3.40;99.90
20483;DHT22;10400;53.198;6.592;2023-02-26T08:18:29;3.40;99.90
20483;DHT22;10400;53.198;6.592;2023-02-26T08:20:55;3.50;99.90
20483;DHT22;10400;53.198;6.592;2023-02-26T08:23:21;3.50;99.90
20483;DHT22;10400;53.198;6.592;2023-02-26T08:25:46;3.50;99.90
20483;DHT22;10400;53.198;6.592;2023-02-26T08:28:16;3.60;99.90
20483;DHT22;10400;53.198;6.592;2023-02-26T08:30:42;3.60;99.90
20483;DHT22;10400;53.198;6.592;2023-02-26T08:33:07;3.70;99.90
20483;DHT22;10400;53.198;6.592;2023-02-26T08:35:33;3.80;99.90
20483;DHT22;10400;53.198;6.592;2023-02-26T08:38:05;3.80;99.90
20483;DHT22;10400;53.198;6.592;2023-02-26T08:40:30;3.80;99.90
20483;DHT22;10400;53.198;6.592;2023-02-26T08:42:56;3.90;99.90
20483;DHT22;10400;53.198;6.592;2023-02-26T08:45:22;4.00;99.90
20483;DHT22;10400;53.198;6.592;2023-02-26T08:47:50;4.00;99.90
20483;DHT22;10400;53.198;6.592;2023-02-26T08:50:18;4.10;99.90
20483;DHT22;10400;53.198;6.592;2023-02-26T08:52:44;4.20;99.90
20483;DHT22;10400;53.198;6.592;2023-02-26T08:55:11;4.30;99.90
20483;DHT22;10400;53.198;6.592;2023-02-26T08:57:37;4.40;99.90
20483;DHT22;10400;53.198;6.592;2023-02-26T09:00:04;4.40;99.90
20483;DHT22;10400;53.198;6.592;2023-02-26T09:02:35;4.50;99.90
20483;DHT22;10400;53.198;6.592;2023-02-26T09:05:01;4.50;99.90
20483;DHT22;10400;53.198;6.592;2023-02-26T09:07:26;4.50;99.90
20483;DHT22;10400;53.198;6.592;2023-02-26T09:09:52;4.70;99.90
20483;DHT22;10400;53.198;6.592;2023-02-26T09:12:18;4.70;99.90
20483;DHT22;10400;53.198;6.592;2023-02-26T09:14:43;4.70;99.90
20483;DHT22;10400;53.198;6.592;2023-02-26T09:17:09;4.70;99.90
20483;DHT22;10400;53.198;6.592;2023-02-26T09:19:35;4.80;99.90
20483;DHT22;10400;53.198;6.592;2023-02-26T09:22:00;4.70;99.90
20483;DHT22;10400;53.198;6.592;2023-02-26T09:24:26;4.80;99.90
20483;DHT22;10400;53.198;6.592;2023-02-26T09:26:55;4.80;99.90
20483;DHT22;10400;53.198;6.592;2023-02-26T09:29:21;4.90;99.90
20483;DHT22;10400;53.198;6.592;2023-02-26T09:31:46;4.90;99.90
20483;DHT22;10400;53.198;6.592;2023-02-26T09:34:12;4.80;99.90
20483;DHT22;10400;53.198;6.592;2023-02-26T09:36:38;4.90;99.90
20483;DHT22;10400;53.198;6.592;2023-02-26T09:39:04;5.00;99.90
20483;DHT22;10400;53.198;6.592;2023-02-26T09:41:33;5.10;99.90
20483;DHT22;10400;53.198;6.592;2023-02-26T09:44:17;5.10;99.90
20483;DHT22;10400;53.198;6.592;2023-02-26T09:49:20;5.30;99.90
20483;DHT22;10400;53.198;6.592;2023-02-26T09:51:51;5.40;99.90
20483;DHT22;10400;53.198;6.592;2023-02-26T09:54:22;5.40;99.90
20483;DHT22;10400;53.198;6.592;2023-02-26T09:56:52;5.50;99.90
20483;DHT22;10400;53.198;6.592;2023-02-26T09:59:21;5.50;99.90
20483;DHT22;10400;53.198;6.592;2023-02-26T10:02:02;5.60;99.90
20483;DHT22;10400;53.198;6.592;2023-02-26T10:10:44;5.80;99.90
20483;DHT22;10400;53.198;6.592;2023-02-26T10:12:50;5.70;99.90
20483;DHT22;10400;53.198;6.592;2023-02-26T10:15:27;5.80;99.90
20483;DHT22;10400;53.198;6.592;2023-02-26T10:20:31;5.90;99.90
20483;DHT22;10400;53.198;6.592;2023-02-26T10:25:45;6.10;99.90
20483;DHT22;10400;53.198;6.592;2023-02-26T10:33:55;6.30;99.90
20483;DHT22;10400;53.198;6.592;2023-02-26T10:36:26;6.40;99.90
20483;DHT22;10400;53.198;6.592;2023-02-26T10:42:04;6.50;99.90
20483;DHT22;10400;53.198;6.592;2023-02-26T10:44:49;6.70;99.90
20483;DHT22;10400;53.198;6.592;2023-02-26T10:50:20;6.80;99.90
20483;DHT22;10400;53.198;6.592;2023-02-26T10:52:48;6.70;99.90
20483;DHT22;10400;53.198;6.592;2023-02-26T10:55:38;6.50;99.90
20483;DHT22;10400;53.198;6.592;2023-02-26T10:58:14;6.40;99.90
20483;DHT22;10400;53.198;6.592;2023-02-26T11:00:42;6.50;99.90
20483;DHT22;10400;53.198;6.592;2023-02-26T11:03:17;6.50;99.90
20483;DHT22;10400;53.198;6.592;2023-02-26T11:05:43;6.60;99.90
20483;DHT22;10400;53.198;6.592;2023-02-26T11:08:24;6.50;99.90
20483;DHT22;10400;53.198;6.592;2023-02-26T11:11:03;6.30;99.90
20483;DHT22;10400;53.198;6.592;2023-02-26T11:13:35;6.50;99.90
20483;DHT22;10400;53.198;6.592;2023-02-26T11:16:13;6.70;99.90
20483;DHT22;10400;53.198;6.592;2023-02-26T11:18:43;6.90;99.90
20483;DHT22;10400;53.198;6.592;2023-02-26T11:21:26;6.90;99.90
20483;DHT22;10400;53.198;6.592;2023-02-26T11:24:17;6.70;99.90
20483;DHT22;10400;53.198;6.592;2023-02-26T11:26:48;6.80;99.90
20483;DHT22;10400;53.198;6.592;2023-02-26T11:29:18;6.80;99.90
20483;DHT22;10400;53.198;6.592;2023-02-26T11:31:47;6.90;99.90
20483;DHT22;10400;53.198;6.592;2023-02-26T11:34:14;6.90;99.90
20483;DHT22;10400;53.198;6.592;2023-02-26T11:36:43;7.10;99.90
20483;DHT22;10400;53.198;6.592;2023-02-26T11:39:22;7.20;99.90
20483;DHT22;10400;53.198;6.592;2023-02-26T11:41:50;7.10;99.90
20483;DHT22;10400;53.198;6.592;2023-02-26T11:44:34;7.00;99.90
20483;DHT22;10400;53.198;6.592;2023-02-26T11:47:04;7.10;99.90
20483;DHT22;10400;53.198;6.592;2023-02-26T11:49:30;6.90;99.90
20483;DHT22;10400;53.198;6.592;2023-02-26T11:54:50;6.90;99.90
20483;DHT22;10400;53.198;6.592;2023-02-26T11:57:23;6.80;99.90
20483;DHT22;10400;53.198;6.592;2023-02-26T11:59:51;6.90;99.90
20483;DHT22;10400;53.198;6.592;2023-02-26T12:02:21;7.00;99.90
20483;DHT22;10400;53.198;6.592;2023-02-26T12:04:53;7.20;99.90
20483;DHT22;10400;53.198;6.592;2023-02-26T12:07:20;7.20;99.90
20483;DHT22;10400;53.198;6.592;2023-02-26T12:09:46;7.30;99.90
20483;DHT22;10400;53.198;6.592;2023-02-26T12:15:20;7.40;99.90
20483;DHT22;10400;53.198;6.592;2023-02-26T12:26:49;6.90;99.90
20483;DHT22;10400;53.198;6.592;2023-02-26T12:41:01;6.60;99.90
20483;DHT22;10400;53.198;6.592;2023-02-26T12:46:46;6.70;99.90
20483;DHT22;10400;53.198;6.592;2023-02-26T12:49:24;6.70;99.90
20483;DHT22;10400;53.198;6.592;2023-02-26T12:54:54;6.70;99.90
20483;DHT22;10400;53.198;6.592;2023-02-26T13:10:50;6.80;99.90
20483;DHT22;10400;53.198;6.592;2023-02-26T13:13:48;6.80;99.90
20483;DHT22;10400;53.198;6.592;2023-02-26T13:16:21;6.90;99.90
20483;DHT22;10400;53.198;6.592;2023-02-26T13:19:09;7.10;99.90
20483;DHT22;10400;53.198;6.592;2023-02-26T13:21:41;7.10;99.90
20483;DHT22;10400;53.198;6.592;2023-02-26T13:26:54;7.00;99.90
20483;DHT22;10400;53.198;6.592;2023-02-26T13:29:28;6.80;99.90
20483;DHT22;10400;53.198;6.592;2023-02-26T13:34:55;7.00;99.90
20483;DHT22;10400;53.198;6.592;2023-02-26T13:37:44;7.10;99.90
20483;DHT22;10400;53.198;6.592;2023-02-26T13:53:51;6.20;99.90
20483;DHT22;10400;53.198;6.592;2023-02-26T14:01:32;6.60;99.90
20483;DHT22;10400;53.198;6.592;2023-02-26T14:07:04;6.20;99.90
20483;DHT22;10400;53.198;6.592;2023-02-26T14:09:56;6.20;99.90
20483;DHT22;10400;53.198;6.592;2023-02-26T14:12:24;6.30;99.90
20483;DHT22;10400;53.198;6.592;2023-02-26T14:25:37;6.90;99.90
20483;DHT22;10400;53.198;6.592;2023-02-26T14:31:15;7.10;99.90
20483;DHT22;10400;53.198;6.592;2023-02-26T14:36:45;6.70;99.90
20483;DHT22;10400;53.198;6.592;2023-02-26T14:39:40;6.40;99.90
20483;DHT22;10400;53.198;6.592;2023-02-26T14:42:24;6.20;99.90
20483;DHT22;10400;53.198;6.592;2023-02-26T14:45:07;6.10;99.90
20483;DHT22;10400;53.198;6.592;2023-02-26T14:47:34;6.40;99.90
20483;DHT22;10400;53.198;6.592;2023-02-26T14:50:01;6.40;99.90
20483;DHT22;10400;53.198;6.592;2023-02-26T14:55:21;6.50;99.90
20483;DHT22;10400;53.198;6.592;2023-02-26T15:01:15;6.40;99.90
20483;DHT22;10400;53.198;6.592;2023-02-26T15:11:58;6.10;99.90
20483;DHT22;10400;53.198;6.592;2023-02-26T15:23:17;5.90;99.90
20483;DHT22;10400;53.198;6.592;2023-02-26T15:25:46;5.90;99.90
20483;DHT22;10400;53.198;6.592;2023-02-26T15:28:33;5.90;99.90
20483;DHT22;10400;53.198;6.592;2023-02-26T15:31:02;5.70;99.90
20483;DHT22;10400;53.198;6.592;2023-02-26T15:33:29;5.70;99.90
20483;DHT22;10400;53.198;6.592;2023-02-26T15:35:56;5.80;99.90
20483;DHT22;10400;53.198;6.592;2023-02-26T15:38:22;5.80;99.90
20483;DHT22;10400;53.198;6.592;2023-02-26T15:40:50;5.80;99.90
20483;DHT22;10400;53.198;6.592;2023-02-26T15:43:22;5.80;99.90
20483;DHT22;10400;53.198;6.592;2023-02-26T15:45:51;5.90;99.90
20483;DHT22;10400;53.198;6.592;2023-02-26T15:48:36;5.80;99.90
20483;DHT22;10400;53.198;6.592;2023-02-26T15:51:04;6.00;99.90
20483;DHT22;10400;53.198;6.592;2023-02-26T15:53:35;6.10;99.90
20483;DHT22;10400;53.198;6.592;2023-02-26T15:56:05;6.30;99.90
20483;DHT22;10400;53.198;6.592;2023-02-26T15:58:45;6.40;99.90
20483;DHT22;10400;53.198;6.592;2023-02-26T16:01:20;6.30;99.90
20483;DHT22;10400;53.198;6.592;2023-02-26T16:03:49;6.20;99.90
20483;DHT22;10400;53.198;6.592;2023-02-26T16:06:23;6.10;99.90
20483;DHT22;10400;53.198;6.592;2023-02-26T16:08:49;6.00;99.90
20483;DHT22;10400;53.198;6.592;2023-02-26T16:11:16;5.80;99.90
20483;DHT22;10400;53.198;6.592;2023-02-26T16:13:43;5.70;99.90
20483;DHT22;10400;53.198;6.592;2023-02-26T16:16:21;5.60;99.90
20483;DHT22;10400;53.198;6.592;2023-02-26T16:18:49;5.50;99.90
20483;DHT22;10400;53.198;6.592;2023-02-26T16:21:26;5.40;99.90
20483;DHT22;10400;53.198;6.592;2023-02-26T16:23:55;5.40;99.90
20483;DHT22;10400;53.198;6.592;2023-02-26T16:26:33;5.40;99.90
20483;DHT22;10400;53.198;6.592;2023-02-26T16:29:03;5.40;99.90
20483;DHT22;10400;53.198;6.592;2023-02-26T16:31:31;5.40;99.90
20483;DHT22;10400;53.198;6.592;2023-02-26T16:36:54;5.30;99.90
20483;DHT22;10400;53.198;6.592;2023-02-26T16:39:23;5.30;99.90
20483;DHT22;10400;53.198;6.592;2023-02-26T16:42:01;5.30;99.90
20483;DHT22;10400;53.198;6.592;2023-02-26T16:46:56;5.20;99.90
20483;DHT22;10400;53.198;6.592;2023-02-26T16:49:30;5.30;99.90
20483;DHT22;10400;53.198;6.592;2023-02-26T16:51:57;5.30;99.90
20483;DHT22;10400;53.198;6.592;2023-02-26T16:54:39;5.30;99.90
20483;DHT22;10400;53.198;6.592;2023-02-26T16:57:12;5.20;99.90
20483;DHT22;10400;53.198;6.592;2023-02-26T16:59:41;5.20;99.90
20483;DHT22;10400;53.198;6.592;2023-02-26T17:02:22;5.20;99.90
20483;DHT22;10400;53.198;6.592;2023-02-26T17:05:01;5.30;99.90
20483;DHT22;10400;53.198;6.592;2023-02-26T17:07:35;5.20;99.90
20483;DHT22;10400;53.198;6.592;2023-02-26T17:10:15;5.10;99.90
20483;DHT22;10400;53.198;6.592;2023-02-26T17:12:47;5.10;99.90
20483;DHT22;10400;53.198;6.592;2023-02-26T17:15:34;5.10;99.90
20483;DHT22;10400;53.198;6.592;2023-02-26T17:18:01;5.20;99.90
20483;DHT22;10400;53.198;6.592;2023-02-26T17:20:28;5.20;99.90
20483;DHT22;10400;53.198;6.592;2023-02-26T17:22:56;5.20;99.90
20483;DHT22;10400;53.198;6.592;2023-02-26T17:25:22;5.10;99.90
20483;DHT22;10400;53.198;6.592;2023-02-26T17:27:53;5.10;99.90
20483;DHT22;10400;53.198;6.592;2023-02-26T17:30:22;5.20;99.90
20483;DHT22;10400;53.198;6.592;2023-02-26T17:32:48;5.00;99.90
20483;DHT22;10400;53.198;6.592;2023-02-26T17:35:16;5.00;99.90
20483;DHT22;10400;53.198;6.592;2023-02-26T17:37:42;4.90;99.90
20483;DHT22;10400;53.198;6.592;2023-02-26T17:40:22;4.90;99.90
20483;DHT22;10400;53.198;6.592;2023-02-26T17:42:49;4.90;99.90
20483;DHT22;10400;53.198;6.592;2023-02-26T17:45:16;5.00;99.90
20483;DHT22;10400;53.198;6.592;2023-02-26T17:47:42;4.90;99.90
20483;DHT22;10400;53.198;6.592;2023-02-26T17:50:31;4.90;99.90
20483;DHT22;10400;53.198;6.592;2023-02-26T17:53:04;4.90;99.90
20483;DHT22;10400;53.198;6.592;2023-02-26T17:55:30;5.00;99.90
20483;DHT22;10400;53.198;6.592;2023-02-26T17:57:56;5.00;99.90
20483;DHT22;10400;53.198;6.592;2023-02-26T18:00:23;5.00;99.90
20483;DHT22;10400;53.198;6.592;2023-02-26T18:02:50;5.00;99.90
20483;DHT22;10400;53.198;6.592;2023-02-26T18:05:17;5.00;99.90
20483;DHT22;10400;53.198;6.592;2023-02-26T18:07:44;5.00;99.90
20483;DHT22;10400;53.198;6.592;2023-02-26T18:10:18;5.00;99.90
20483;DHT22;10400;53.198;6.592;2023-02-26T18:12:43;5.00;99.90
20483;DHT22;10400;53.198;6.592;2023-02-26T18:15:10;4.90;99.90
20483;DHT22;10400;53.198;6.592;2023-02-26T18:17:36;4.80;99.90
20483;DHT22;10400;53.198;6.592;2023-02-26T18:20:03;4.90;99.90
20483;DHT22;10400;53.198;6.592;2023-02-26T18:22:31;4.80;99.90
20483;DHT22;10400;53.198;6.592;2023-02-26T18:24:57;4.80;99.90
20483;DHT22;10400;53.198;6.592;2023-02-26T18:27:24;4.80;99.90
20483;DHT22;10400;53.198;6.592;2023-02-26T18:29:51;4.70;99.90
20483;DHT22;10400;53.198;6.592;2023-02-26T18:32:19;4.70;99.90
20483;DHT22;10400;53.198;6.592;2023-02-26T18:34:45;4.50;99.90
20483;DHT22;10400;53.198;6.592;2023-02-26T18:37:17;4.50;99.90
20483;DHT22;10400;53.198;6.592;2023-02-26T18:39:43;4.60;99.90
20483;DHT22;10400;53.198;6.592;2023-02-26T18:42:27;4.60;99.90
20483;DHT22;10400;53.198;6.592;2023-02-26T18:44:53;4.60;99.90
20483;DHT22;10400;53.198;6.592;2023-02-26T18:47:20;4.60;99.90
20483;DHT22;10400;53.198;6.592;2023-02-26T18:49:47;4.60;99.90
20483;DHT22;10400;53.198;6.592;2023-02-26T18:52:14;4.50;99.90
20483;DHT22;10400;53.198;6.592;2023-02-26T18:54:40;4.50;99.90
20483;DHT22;10400;53.198;6.592;2023-02-26T18:57:06;4.40;99.90
20483;DHT22;10400;53.198;6.592;2023-02-26T18:59:32;4.30;99.90
20483;DHT22;10400;53.198;6.592;2023-02-26T19:02:00;4.20;99.90
20483;DHT22;10400;53.198;6.592;2023-02-26T19:04:26;4.20;99.90
20483;DHT22;10400;53.198;6.592;2023-02-26T19:06:51;4.10;99.90
20483;DHT22;10400;53.198;6.592;2023-02-26T19:09:17;4.10;99.90
20483;DHT22;10400;53.198;6.592;2023-02-26T19:11:43;4.10;99.90